createdAt,value
2022-12-05T07:15:27.061Z,99.90
2022-12-05T07:17:58.682Z,99.90
2022-12-05T07:20:43.077Z,99.90
2022-12-05T07:23:21.000Z,99.90
2022-12-05T07:25:52.633Z,99.90
2022-12-05T07:28:24.553Z,99.90
2022-12-05T07:31:01.222Z,99.90
2022-12-05T07:33:33.064Z,99.90
2022-12-05T07:36:07.594Z,99.90
2022-12-05T07:38:40.238Z,99.90
2022-12-05T07:41:17.743Z,99.90
2022-12-05T07:43:50.494Z,99.90
2022-12-05T07:46:23.975Z,99.90
2022-12-05T07:48:55.675Z,99.90
2022-12-05T07:51:27.285Z,99.90
2022-12-05T07:53:59.246Z,99.90
2022-12-05T07:56:30.844Z,99.90
2022-12-05T07:59:02.477Z,99.90
2022-12-05T08:01:36.619Z,99.90
2022-12-05T08:04:13.562Z,99.90
2022-12-05T08:06:46.833Z,99.90
2022-12-05T08:09:18.444Z,99.90
2022-12-05T08:11:52.827Z,99.90
2022-12-05T08:14:24.662Z,99.90
2022-12-05T08:16:57.703Z,99.90
2022-12-05T08:19:29.521Z,99.90
2022-12-05T08:22:01.121Z,99.90
2022-12-05T08:24:32.730Z,99.90
2022-12-05T08:27:04.534Z,99.90
2022-12-05T08:29:36.180Z,99.90
2022-12-05T08:32:09.340Z,99.90
2022-12-05T08:34:41.213Z,99.90
2022-12-05T08:37:13.024Z,99.90
2022-12-05T08:39:44.761Z,99.90
2022-12-05T08:42:16.544Z,99.90
2022-12-05T08:44:50.984Z,99.90
2022-12-05T08:47:24.114Z,99.90
2022-12-05T08:49:56.263Z,99.90
2022-12-05T08:52:28.173Z,99.90
2022-12-05T08:55:00.367Z,99.90
2022-12-05T08:57:32.583Z,99.90
2022-12-05T09:00:06.725Z,99.90
2022-12-05T09:02:39.866Z,99.90
2022-12-05T09:05:27.110Z,99.90
2022-12-05T09:07:59.802Z,99.90
2022-12-05T09:10:31.689Z,99.90
2022-12-05T09:13:03.430Z,99.90
2022-12-05T09:15:38.634Z,99.90
2022-12-05T09:18:12.605Z,99.90
2022-12-05T09:20:44.373Z,99.90
2022-12-05T09:23:16.304Z,99.90
2022-12-05T09:25:53.017Z,99.90
2022-12-05T09:28:24.619Z,99.90
2022-12-05T09:30:56.888Z,99.90
2022-12-05T09:33:30.443Z,99.90
2022-12-05T09:36:02.731Z,99.90
2022-12-05T09:38:34.622Z,99.90
2022-12-05T09:41:12.076Z,99.90
2022-12-05T09:43:47.270Z,99.90
2022-12-05T09:46:20.988Z,99.90
2022-12-05T09:48:54.645Z,99.90
2022-12-05T09:51:26.545Z,99.90
2022-12-05T09:53:58.220Z,99.90
2022-12-05T09:56:30.668Z,99.90
2022-12-05T09:59:02.273Z,99.90
2022-12-05T10:01:42.250Z,99.90
2022-12-05T10:04:22.548Z,99.90
2022-12-05T10:06:57.635Z,99.90
2022-12-05T10:09:37.286Z,99.90
2022-12-05T10:12:14.560Z,99.90
2022-12-05T10:14:49.646Z,99.90
2022-12-05T10:17:23.629Z,99.90
2022-12-05T10:19:59.217Z,99.90
2022-12-05T10:22:43.717Z,99.90
2022-12-05T10:25:18.313Z,99.90
2022-12-05T10:27:51.300Z,99.90
2022-12-05T10:30:23.602Z,99.90
2022-12-05T10:32:56.459Z,99.90
2022-12-05T10:35:34.067Z,99.90
2022-12-05T10:38:09.705Z,99.90
2022-12-05T10:40:42.471Z,99.90
2022-12-05T10:43:16.415Z,99.90
2022-12-05T10:45:48.384Z,99.90
2022-12-05T10:48:20.511Z,99.90
2022-12-05T10:50:54.795Z,99.90
2022-12-05T10:53:27.973Z,99.90
2022-12-05T10:56:29.411Z,99.90
2022-12-05T10:58:55.487Z,99.90
2022-12-05T11:01:28.115Z,99.90
2022-12-05T11:04:00.876Z,99.90
2022-12-05T11:06:33.915Z,99.90
2022-12-05T11:09:13.472Z,99.90
2022-12-05T11:11:56.807Z,99.90
2022-12-05T11:14:29.794Z,99.90
2022-12-05T11:17:02.386Z,99.90
2022-12-05T11:19:35.145Z,99.90
2022-12-05T11:22:16.583Z,99.90
2022-12-05T11:24:48.286Z,99.90
2022-12-05T11:27:21.051Z,99.90
2022-12-05T11:29:57.928Z,99.90
2022-12-05T11:32:30.560Z,99.90
2022-12-05T11:35:09.290Z,99.90
2022-12-05T11:37:44.969Z,99.90
2022-12-05T11:40:17.573Z,99.90
2022-12-05T11:43:04.771Z,99.90
2022-12-05T11:45:47.086Z,99.90
2022-12-05T11:48:31.839Z,99.90
2022-12-05T11:51:10.689Z,99.90
2022-12-05T11:53:50.300Z,99.90
2022-12-05T11:56:27.678Z,99.90
2022-12-05T11:59:08.465Z,99.90
2022-12-05T12:01:46.112Z,99.90
2022-12-05T12:04:38.597Z,99.90
2022-12-05T12:07:24.798Z,99.90
2022-12-05T12:10:09.814Z,99.90
2022-12-05T12:12:49.057Z,99.90
2022-12-05T12:15:31.324Z,99.90
2022-12-05T12:18:08.738Z,99.90
2022-12-05T12:20:44.717Z,99.90
2022-12-05T12:23:23.579Z,99.90
2022-12-05T12:26:04.331Z,99.90
2022-12-05T12:28:39.985Z,99.90
2022-12-05T12:31:20.876Z,99.90
2022-12-05T12:33:57.746Z,99.90
2022-12-05T12:36:31.653Z,99.90
2022-12-05T12:39:09.973Z,99.90
2022-12-05T12:41:49.264Z,99.90
2022-12-05T12:44:35.693Z,99.90
2022-12-05T12:47:09.707Z,99.90
2022-12-05T12:49:49.442Z,99.90
2022-12-05T12:52:22.728Z,99.90
2022-12-05T12:55:04.356Z,99.90
2022-12-05T12:57:47.982Z,99.90
2022-12-05T13:00:23.351Z,99.90
2022-12-05T13:02:58.107Z,99.90
2022-12-05T13:05:32.936Z,99.90
2022-12-05T13:08:05.885Z,99.90
2022-12-05T13:10:40.519Z,99.90
2022-12-05T13:13:16.171Z,99.90
2022-12-05T13:15:50.403Z,99.90
2022-12-05T13:18:22.967Z,99.90
2022-12-05T13:20:55.817Z,99.90
2022-12-05T13:23:28.767Z,99.90
2022-12-05T13:26:01.541Z,99.90
2022-12-05T13:28:41.900Z,99.90
2022-12-05T13:31:16.742Z,99.90
2022-12-05T13:33:49.484Z,99.90
2022-12-05T13:36:40.569Z,99.90
2022-12-05T13:39:38.210Z,99.90
2022-12-05T13:42:21.051Z,99.90
2022-12-05T13:44:55.473Z,99.90
2022-12-05T13:47:29.215Z,99.90
2022-12-05T13:50:03.356Z,99.90
2022-12-05T13:52:40.162Z,99.90
2022-12-05T13:55:19.108Z,99.90
2022-12-05T13:57:52.013Z,99.90
2022-12-05T14:00:28.179Z,99.90
2022-12-05T14:03:03.266Z,99.90
2022-12-05T14:05:53.227Z,99.90
2022-12-05T14:08:45.680Z,99.90
2022-12-05T14:11:18.041Z,99.90
2022-12-05T14:13:49.763Z,99.90
2022-12-05T14:16:45.459Z,99.90
2022-12-05T14:19:37.635Z,99.90
2022-12-05T14:22:15.722Z,99.90
2022-12-05T14:24:53.678Z,99.90
2022-12-05T14:27:29.665Z,99.90
2022-12-05T14:30:03.243Z,99.90
2022-12-05T14:32:36.805Z,99.90
2022-12-05T14:35:13.286Z,99.90
2022-12-05T14:37:51.935Z,99.90
2022-12-05T14:40:27.237Z,99.90
2022-12-05T14:43:00.585Z,99.90
2022-12-05T14:45:33.830Z,99.90
2022-12-05T14:48:06.119Z,99.90
2022-12-05T14:50:43.978Z,99.90
2022-12-05T14:53:21.881Z,99.90
2022-12-05T14:55:54.444Z,99.90
2022-12-05T14:58:32.460Z,99.90
2022-12-05T15:01:06.521Z,99.90
2022-12-05T15:03:39.071Z,99.90
2022-12-05T15:06:15.720Z,99.90
2022-12-05T15:08:48.852Z,99.90
2022-12-05T15:11:28.379Z,99.90
2022-12-05T15:14:01.567Z,99.90
2022-12-05T15:16:35.669Z,99.90
2022-12-05T15:19:11.625Z,99.90
2022-12-05T15:21:46.234Z,99.90
2022-12-05T15:24:18.821Z,99.90
2022-12-05T15:26:51.710Z,99.90
2022-12-05T15:29:32.911Z,99.90
2022-12-05T15:32:06.368Z,99.90
2022-12-05T15:34:42.006Z,99.90
2022-12-05T15:37:16.533Z,99.90
2022-12-05T15:39:55.486Z,99.90
2022-12-05T15:42:30.133Z,99.90
2022-12-05T15:45:20.370Z,99.90
2022-12-05T15:47:54.140Z,99.90
2022-12-05T15:50:30.503Z,99.90
2022-12-05T15:53:05.634Z,99.90
2022-12-05T15:55:40.818Z,99.90
2022-12-05T15:58:18.182Z,99.90
2022-12-05T16:00:51.684Z,99.90
2022-12-05T16:03:26.428Z,99.90
2022-12-05T16:06:02.768Z,99.90
2022-12-05T16:08:44.669Z,99.90
2022-12-05T16:11:19.891Z,99.90
2022-12-05T16:14:02.877Z,99.90
2022-12-05T16:16:40.956Z,99.90
2022-12-05T16:19:15.528Z,99.90
2022-12-05T16:21:58.842Z,99.90
2022-12-05T16:24:35.837Z,99.90
2022-12-05T16:27:13.879Z,99.90
2022-12-05T16:29:45.830Z,99.90
2022-12-05T16:32:21.624Z,99.90
2022-12-05T16:34:53.368Z,99.90
2022-12-05T16:37:26.113Z,99.90
2022-12-05T16:39:59.405Z,99.90
2022-12-05T16:42:31.255Z,99.90
2022-12-05T16:45:03.708Z,99.90
2022-12-05T16:47:54.686Z,99.90
2022-12-05T16:50:30.326Z,99.90
2022-12-05T16:53:02.765Z,99.90
2022-12-05T16:55:37.671Z,99.90
2022-12-05T16:58:10.124Z,99.90
2022-12-05T17:00:42.173Z,99.90
2022-12-05T17:03:33.346Z,99.90
2022-12-05T17:06:06.182Z,99.90
2022-12-05T17:08:37.808Z,99.90
2022-12-05T17:11:14.639Z,99.90
2022-12-05T17:13:48.322Z,99.90
2022-12-05T17:16:20.801Z,99.90
2022-12-05T17:18:52.714Z,99.90
2022-12-05T17:21:26.764Z,99.90
2022-12-05T17:23:58.399Z,99.90
2022-12-05T17:26:31.634Z,99.90
2022-12-05T17:29:03.283Z,99.90
2022-12-05T17:31:35.985Z,99.90
2022-12-05T17:34:12.547Z,99.90
2022-12-05T17:36:44.833Z,99.90
2022-12-05T17:39:16.522Z,99.90
2022-12-05T17:41:52.559Z,99.90
2022-12-05T17:44:24.636Z,99.90
2022-12-05T17:46:56.562Z,99.90
2022-12-05T17:49:28.590Z,99.90
2022-12-05T17:54:56.425Z,99.90
2022-12-05T17:57:30.179Z,99.90
2022-12-05T18:00:02.502Z,98.80
2022-12-05T18:02:34.704Z,98.00
2022-12-05T18:05:06.988Z,97.50
2022-12-05T18:07:43.192Z,97.10
2022-12-05T18:10:17.235Z,96.80
2022-12-05T18:12:51.355Z,96.70
2022-12-05T18:15:23.185Z,96.50
2022-12-05T18:17:55.655Z,96.40
2022-12-05T18:20:27.662Z,96.10
2022-12-05T18:22:59.528Z,96.00
2022-12-05T18:25:32.095Z,95.70
2022-12-05T18:28:05.376Z,95.40
2022-12-05T18:30:37.144Z,95.10
2022-12-05T18:33:08.832Z,95.10
2022-12-05T18:35:40.840Z,94.90
2022-12-05T18:38:12.783Z,94.70
2022-12-05T18:40:44.460Z,94.60
2022-12-05T18:43:20.074Z,94.50
2022-12-05T18:45:54.710Z,94.30
2022-12-05T18:48:46.025Z,94.10
2022-12-05T18:51:19.551Z,93.80
2022-12-05T18:53:52.525Z,93.50
2022-12-05T18:56:26.454Z,93.30
2022-12-05T18:59:02.480Z,93.40
2022-12-05T19:01:35.147Z,93.40
2022-12-05T19:04:08.528Z,93.20
2022-12-05T19:06:41.458Z,93.00
2022-12-05T19:09:15.472Z,92.90
2022-12-05T19:11:48.754Z,92.90
2022-12-05T19:14:21.925Z,92.90
2022-12-05T19:17:00.151Z,92.80
2022-12-05T19:19:37.235Z,92.70
2022-12-05T19:22:11.943Z,92.60
2022-12-05T19:24:43.698Z,92.60
2022-12-05T19:27:15.536Z,92.70
2022-12-05T19:29:48.657Z,92.70
2022-12-05T19:32:20.507Z,92.70
2022-12-05T19:34:52.271Z,92.70
2022-12-05T19:37:28.493Z,92.80
2022-12-05T19:40:00.604Z,92.80
2022-12-05T19:42:32.668Z,92.80
2022-12-05T19:45:09.645Z,92.90
2022-12-05T19:47:44.143Z,93.10
2022-12-05T19:50:16.023Z,92.80
2022-12-05T19:52:50.560Z,92.80
2022-12-05T19:55:22.430Z,92.70
2022-12-05T19:57:54.150Z,92.60
2022-12-05T20:00:27.421Z,92.60
2022-12-05T20:02:59.266Z,92.70
2022-12-05T20:05:31.793Z,92.30
2022-12-05T20:08:03.872Z,92.10
2022-12-05T20:10:37.711Z,91.90
2022-12-05T20:13:44.797Z,91.60
2022-12-05T20:16:03.872Z,90.90
2022-12-05T20:18:37.556Z,90.40
2022-12-05T20:21:14.169Z,90.80
2022-12-05T20:23:46.454Z,91.40
2022-12-05T20:26:20.461Z,91.90
2022-12-05T20:28:52.562Z,92.20
2022-12-05T20:31:28.122Z,92.30
2022-12-05T20:34:00.141Z,92.30
2022-12-05T20:36:34.925Z,92.40
2022-12-05T20:39:08.273Z,92.50
2022-12-05T20:41:39.923Z,92.40
2022-12-05T20:44:14.692Z,92.40
2022-12-05T20:46:48.996Z,92.20
2022-12-05T20:49:23.588Z,92.00
2022-12-05T20:51:55.412Z,91.80
2022-12-05T20:54:27.669Z,91.70
2022-12-05T20:56:59.443Z,91.70
2022-12-05T20:59:31.209Z,91.80
2022-12-05T21:02:04.495Z,91.80
2022-12-05T21:04:40.401Z,91.80
2022-12-05T21:07:12.171Z,91.60
2022-12-05T21:09:43.991Z,91.50
2022-12-05T21:12:15.734Z,91.40
2022-12-05T21:14:47.500Z,91.20
2022-12-05T21:17:20.958Z,90.80
2022-12-05T21:19:52.731Z,90.40
2022-12-05T21:22:24.644Z,90.00
2022-12-05T21:24:56.784Z,89.30
2022-12-05T21:27:28.533Z,88.70
2022-12-05T21:30:00.521Z,88.20
2022-12-05T21:32:36.086Z,88.00
2022-12-05T21:35:08.723Z,87.70
2022-12-05T21:37:40.523Z,87.50
2022-12-05T21:40:12.395Z,87.30
2022-12-05T21:42:44.125Z,87.10
2022-12-05T21:45:16.312Z,86.80
2022-12-05T21:47:51.112Z,86.50
2022-12-05T21:50:26.266Z,86.30
2022-12-05T21:52:58.287Z,86.10
2022-12-05T21:55:35.774Z,86.00
2022-12-05T21:58:07.916Z,85.90
2022-12-05T22:00:40.392Z,85.70
2022-12-05T22:03:15.468Z,85.70
2022-12-05T22:05:47.613Z,85.60
2022-12-05T22:08:19.739Z,85.50
2022-12-05T22:10:51.558Z,85.40
2022-12-05T22:13:23.503Z,85.30
2022-12-05T22:15:58.363Z,85.30
2022-12-05T22:18:37.433Z,85.30
2022-12-05T22:21:12.024Z,85.30
2022-12-05T22:23:44.299Z,85.00
2022-12-05T22:26:18.900Z,85.00
2022-12-05T22:28:51.846Z,84.70
2022-12-05T22:31:24.592Z,84.60
2022-12-05T22:33:57.911Z,84.50
2022-12-05T22:36:29.824Z,84.30
2022-12-05T22:39:02.730Z,84.20
2022-12-05T22:41:34.752Z,84.00
2022-12-05T22:44:06.622Z,84.00
2022-12-05T22:46:38.478Z,83.90
2022-12-05T22:49:11.877Z,83.80
2022-12-05T22:51:43.499Z,83.80
2022-12-05T22:54:15.321Z,84.20
2022-12-05T22:56:47.119Z,84.30
2022-12-05T22:59:18.995Z,84.20
2022-12-05T23:01:50.828Z,84.10
2022-12-05T23:04:24.587Z,84.10
2022-12-05T23:06:56.761Z,84.00
2022-12-05T23:09:28.771Z,84.20
2022-12-05T23:12:00.787Z,84.40
2022-12-05T23:14:32.665Z,84.30
2022-12-05T23:17:04.995Z,83.70
2022-12-05T23:19:38.879Z,82.90
2022-12-05T23:22:10.766Z,82.60
2022-12-05T23:24:42.588Z,82.70
2022-12-05T23:27:18.550Z,83.00
2022-12-05T23:29:50.530Z,83.40
2022-12-05T23:32:22.380Z,84.00
2022-12-05T23:34:55.781Z,84.80
2022-12-05T23:37:27.431Z,85.60
2022-12-05T23:39:59.580Z,86.20
2022-12-05T23:42:31.635Z,87.10
2022-12-05T23:45:03.919Z,88.00
2022-12-05T23:47:35.899Z,89.00
2022-12-05T23:50:09.545Z,90.00
2022-12-05T23:52:41.228Z,90.40
2022-12-05T23:55:12.883Z,90.90
2022-12-05T23:57:44.506Z,91.40
